Time;durP1;ratioP1;P1;durP2;ratioP2;P2;SDS_P1;SDS_P2;PMS_P1;PMS_P2;Temp;Humidity;BMP_temperature;BMP_pressure;BME280_temperature;BME280_humidity;BME280_pressure;Samples;Min_cycle;Max_cycle;Signal;HPM_P1;HPM_P2
2023/10/05 00:04:21;;;;;;;9.70;3.15;;;12.50;99.90;;;;;;5052634;28;20036;-65
2023/10/05 00:06:53;;;;;;;7.97;2.60;;;12.50;99.90;;;;;;5033770;28;20441;-69
2023/10/05 00:09:24;;;;;;;9.45;1.80;;;12.50;99.90;;;;;;5055313;28;20048;-61
2023/10/05 00:11:55;;;;;;;8.90;3.10;;;12.60;99.90;;;;;;5054447;28;20049;-60
2023/10/05 00:14:24;;;;;;;;;;;12.60;99.90;;;;;;5056696;28;20045;-61
2023/10/05 00:16:54;;;;;;;5.85;2.72;;;12.60;99.90;;;;;;5058640;28;20031;-63
2023/10/05 00:19:23;;;;;;;10.93;3.67;;;12.60;99.90;;;;;;5049236;28;20126;-63
2023/10/05 00:21:51;;;;;;;6.00;3.08;;;12.60;99.90;;;;;;5054758;28;20044;-62
2023/10/05 00:24:27;;;;;;;6.85;3.00;;;12.50;99.90;;;;;;5054119;28;20044;-61
2023/10/05 00:26:56;;;;;;;7.82;2.60;;;12.50;99.90;;;;;;5057841;28;20064;-62
2023/10/05 00:29:29;;;;;;;6.38;2.55;;;12.50;99.90;;;;;;5053189;28;20397;-63
2023/10/05 00:32:00;;;;;;;5.93;3.25;;;12.50;99.90;;;;;;5053682;28;20036;-63
2023/10/05 00:34:28;;;;;;;9.52;2.28;;;12.40;99.90;;;;;;5050611;28;20029;-63
2023/10/05 00:36:59;;;;;;;9.98;2.83;;;12.40;99.90;;;;;;5068048;28;20482;-62
2023/10/05 00:39:29;;;;;;;5.35;1.83;;;12.40;99.90;;;;;;5057126;28;20041;-62
2023/10/05 00:44:31;;;;;;;4.53;2.08;;;12.40;99.90;;;;;;5057187;28;20041;-62
2023/10/05 00:47:03;;;;;;;5.53;2.35;;;12.30;99.90;;;;;;5060062;28;20115;-61
2023/10/05 00:49:45;;;;;;;4.18;2.33;;;12.30;99.90;;;;;;5056891;28;20037;-60
2023/10/05 00:52:17;;;;;;;10.13;1.98;;;12.30;99.90;;;;;;5055718;28;20140;-64
2023/10/05 00:54:51;;;;;;;6.47;1.80;;;12.30;99.90;;;;;;5058232;28;20040;-61
2023/10/05 00:57:28;;;;;;;6.32;1.98;;;12.20;99.90;;;;;;5054015;28;20820;-61
2023/10/05 01:02:32;;;;;;;10.13;2.28;;;12.20;99.90;;;;;;5056026;28;20037;-63
2023/10/05 01:05:16;;;;;;;9.88;3.53;;;12.20;99.90;;;;;;5055169;28;20040;-60
2023/10/05 01:07:43;;;;;;;4.82;2.15;;;12.20;99.90;;;;;;5055951;28;20064;-63
2023/10/05 01:12:51;;;;;;;10.82;2.13;;;12.10;99.90;;;;;;5041478;28;20061;-65
2023/10/05 01:15:19;;;;;;;10.13;3.53;;;12.10;99.90;;;;;;5054923;28;20032;-61
2023/10/05 01:17:50;;;;;;;6.90;2.08;;;12.00;99.90;;;;;;5055868;28;20029;-60
2023/10/05 01:22:47;;;;;;;4.63;2.33;;;12.00;99.90;;;;;;5056292;28;20044;-63
2023/10/05 01:25:14;;;;;;;7.15;3.70;;;12.00;99.90;;;;;;5056601;28;20095;-61
2023/10/05 01:27:47;;;;;;;4.28;2.20;;;12.00;99.90;;;;;;5054491;28;20113;-62
2023/10/05 01:30:17;;;;;;;7.55;2.30;;;11.90;99.90;;;;;;5044381;28;20686;-61
2023/10/05 01:32:46;;;;;;;6.10;2.13;;;11.90;99.90;;;;;;5056063;28;20059;-60
2023/10/05 01:35:15;;;;;;;5.28;1.90;;;11.90;99.90;;;;;;5044024;28;20145;-62
2023/10/05 01:37:46;;;;;;;8.68;1.73;;;11.90;99.90;;;;;;5057863;28;20052;-63
2023/10/05 01:42:43;;;;;;;8.00;2.13;;;11.60;99.90;;;;;;5051390;28;20139;-60
2023/10/05 01:45:15;;;;;;;8.02;1.58;;;11.50;99.90;;;;;;5041108;28;20124;-62
2023/10/05 01:47:46;;;;;;;9.77;2.15;;;11.40;99.90;;;;;;5055320;28;20062;-61
2023/10/05 01:50:22;;;;;;;4.82;2.22;;;11.40;99.90;;;;;;5057872;28;20063;-60
2023/10/05 01:53:02;;;;;;;9.18;2.03;;;11.40;99.90;;;;;;5053301;28;20399;-65
2023/10/05 01:55:34;;;;;;;7.07;2.00;;;11.40;99.90;;;;;;5055229;28;20041;-61
2023/10/05 01:58:04;;;;;;;8.15;2.35;;;11.30;99.90;;;;;;5039560;28;20522;-61
2023/10/05 02:00:33;;;;;;;7.95;1.73;;;11.40;99.90;;;;;;5041631;28;20052;-62
2023/10/05 02:03:05;;;;;;;8.73;2.25;;;11.50;99.90;;;;;;5056023;28;20041;-64
2023/10/05 02:05:32;;;;;;;11.13;3.22;;;11.60;99.90;;;;;;5053561;28;20076;-63
2023/10/05 02:07:59;;;;;;;5.55;1.95;;;11.70;99.90;;;;;;5056562;28;20514;-63
2023/10/05 02:10:32;;;;;;;6.53;2.47;;;11.80;99.90;;;;;;5052226;28;20036;-61
2023/10/05 02:13:01;;;;;;;5.47;3.42;;;11.80;99.90;;;;;;5052726;28;20040;-62
2023/10/05 02:15:28;;;;;;;4.55;2.95;;;11.90;99.90;;;;;;5046882;28;20036;-61
2023/10/05 02:18:02;;;;;;;8.60;3.85;;;11.90;99.90;;;;;;5055048;28;20049;-60
2023/10/05 02:22:58;;;;;;;9.30;3.50;;;11.90;99.90;;;;;;5055702;28;20090;-62
2023/10/05 02:25:34;;;;;;;5.05;3.00;;;11.90;99.90;;;;;;5069686;28;20380;-63
2023/10/05 02:28:02;;;;;;;5.72;2.03;;;11.90;99.90;;;;;;5039486;28;20044;-63
2023/10/05 02:30:31;;;;;;;4.63;0.98;;;11.80;99.90;;;;;;5054657;28;20036;-61
2023/10/05 02:32:59;;;;;;;3.33;1.27;;;11.80;99.90;;;;;;5039799;28;20088;-59
2023/10/05 02:35:33;;;;;;;11.55;3.20;;;11.70;99.90;;;;;;5055264;28;20072;-63
2023/10/05 02:38:05;;;;;;;12.48;2.97;;;11.60;99.90;;;;;;5055733;28;20178;-64
2023/10/05 02:40:38;;;;;;;14.95;4.05;;;11.60;99.90;;;;;;5041341;28;20047;-64
2023/10/05 02:43:07;;;;;;;11.77;3.55;;;11.80;99.90;;;;;;5042969;28;20048;-64
2023/10/05 02:45:37;;;;;;;12.40;4.00;;;11.90;99.90;;;;;;5066393;28;20045;-62
2023/10/05 02:48:10;;;;;;;6.35;2.80;;;11.90;99.90;;;;;;5037827;28;20048;-62
2023/10/05 02:50:40;;;;;;;7.97;3.75;;;12.00;99.90;;;;;;5038486;28;20060;-63
2023/10/05 02:53:06;;;;;;;13.25;3.92;;;12.00;99.90;;;;;;5033760;28;20056;-61
2023/10/05 02:55:36;;;;;;;7.53;4.32;;;12.00;99.90;;;;;;5055664;28;20045;-64
2023/10/05 02:58:04;;;;;;;9.63;2.85;;;12.00;99.90;;;;;;5053565;28;20326;-61
2023/10/05 03:00:33;;;;;;;8.43;4.88;;;12.00;99.90;;;;;;5066891;28;20450;-62
2023/10/05 03:03:05;;;;;;;7.60;4.75;;;12.00;99.90;;;;;;5053543;28;20047;-63
2023/10/05 03:05:35;;;;;;;9.27;5.25;;;12.00;99.90;;;;;;5038868;28;20049;-61
2023/10/05 03:08:03;;;;;;;6.13;3.22;;;12.00;99.90;;;;;;5034567;28;20040;-61
2023/10/05 03:10:30;;;;;;;8.85;4.10;;;12.10;99.90;;;;;;5034867;28;20072;-63
2023/10/05 03:12:58;;;;;;;8.70;3.95;;;12.10;99.90;;;;;;5031056;28;20623;-63
2023/10/05 03:15:27;;;;;;;9.85;5.15;;;12.10;99.90;;;;;;5068173;28;20049;-61
2023/10/05 03:17:57;;;;;;;8.52;3.80;;;12.10;99.90;;;;;;5034566;28;20052;-63
2023/10/05 03:20:24;;;;;;;14.07;4.85;;;12.10;99.90;;;;;;5057646;28;20037;-69
2023/10/05 03:22:55;;;;;;;6.72;3.10;;;12.10;99.90;;;;;;5057565;28;20064;-63
2023/10/05 03:25:25;;;;;;;6.80;4.22;;;12.10;99.90;;;;;;5033821;28;20060;-64
2023/10/05 03:27:56;;;;;;;10.07;3.65;;;12.10;99.90;;;;;;5067745;28;20080;-61
2023/10/05 03:30:30;;;;;;;11.00;3.90;;;12.00;99.90;;;;;;5051358;28;20071;-64
2023/10/05 03:33:00;;;;;;;7.45;3.60;;;12.10;99.90;;;;;;5071005;28;20044;-61
2023/10/05 03:35:32;;;;;;;11.35;3.78;;;12.00;99.90;;;;;;5051721;28;20040;-62
2023/10/05 03:38:00;;;;;;;7.22;3.75;;;12.00;99.90;;;;;;5036577;28;20449;-60
2023/10/05 03:40:35;;;;;;;9.98;4.60;;;12.00;99.90;;;;;;5039555;28;20045;-63
2023/10/05 03:43:05;;;;;;;10.52;4.10;;;12.00;99.90;;;;;;5042481;28;20041;-61
2023/10/05 03:45:35;;;;;;;13.48;4.57;;;12.00;99.90;;;;;;5032414;28;20787;-61
2023/10/05 03:48:02;;;;;;;9.30;5.68;;;12.00;99.90;;;;;;5036663;28;20094;-61
2023/10/05 03:50:30;;;;;;;7.50;4.47;;;12.00;99.90;;;;;;5033872;28;20134;-61
2023/10/05 03:52:58;;;;;;;10.13;5.95;;;12.00;99.90;;;;;;5038253;28;20056;-61
2023/10/05 03:55:25;;;;;;;6.38;3.15;;;12.00;99.90;;;;;;5046434;28;20033;-68
2023/10/05 03:57:54;;;;;;;9.93;3.35;;;11.90;99.90;;;;;;5039402;28;20048;-63
2023/10/05 04:02:53;;;;;;;9.52;3.70;;;11.90;99.90;;;;;;5044634;28;20494;-60
2023/10/05 04:05:22;;;;;;;9.38;4.93;;;11.90;99.90;;;;;;5052456;28;20044;-60
2023/10/05 04:07:52;;;;;;;10.68;3.67;;;12.00;99.90;;;;;;5054250;28;20044;-62
2023/10/05 04:11:04;;;;;;;10.93;3.88;;;12.00;99.90;;;;;;5052318;28;20090;-61
2023/10/05 04:13:06;;;;;;;14.30;5.40;;;12.00;99.90;;;;;;5041850;28;20133;-62
2023/10/05 04:15:33;;;;;;;10.48;5.03;;;12.00;99.90;;;;;;5057311;28;20428;-62
2023/10/05 04:18:00;;;;;;;11.30;3.78;;;12.00;99.90;;;;;;5058936;28;20051;-65
2023/10/05 04:20:28;;;;;;;12.05;4.82;;;12.00;99.90;;;;;;5057800;28;20443;-64
2023/10/05 04:22:56;;;;;;;13.02;6.40;;;12.00;99.90;;;;;;5054699;28;20453;-67
2023/10/05 04:25:23;;;;;;;13.10;5.75;;;12.00;99.90;;;;;;5059499;28;20063;-65
2023/10/05 04:27:52;;;;;;;17.35;5.32;;;12.00;99.90;;;;;;5054767;28;20371;-60
2023/10/05 04:30:23;;;;;;;11.32;5.32;;;12.00;99.90;;;;;;5057138;28;20059;-62
2023/10/05 04:32:50;;;;;;;17.85;7.47;;;12.00;99.90;;;;;;5053461;28;20033;-62
2023/10/05 04:35:27;;;;;;;6.70;4.38;;;12.00;99.90;;;;;;5057298;28;20041;-65
2023/10/05 04:37:56;;;;;;;8.10;4.85;;;12.10;99.90;;;;;;5055503;28;20109;-63
2023/10/05 04:40:24;;;;;;;11.57;5.32;;;12.10;99.90;;;;;;5061365;28;20045;-65
2023/10/05 04:42:52;;;;;;;16.63;5.25;;;12.10;99.90;;;;;;5055910;28;20386;-62
2023/10/05 04:45:20;;;;;;;13.10;4.25;;;12.10;99.90;;;;;;5057397;28;20435;-62
2023/10/05 04:47:48;;;;;;;10.77;4.30;;;12.10;99.90;;;;;;5054574;28;20037;-60
2023/10/05 04:50:17;;;;;;;11.05;3.90;;;12.10;99.90;;;;;;5059969;28;20375;-61
2023/10/05 04:52:50;;;;;;;8.07;4.57;;;12.10;99.90;;;;;;5052699;28;20092;-62
2023/10/05 04:55:22;;;;;;;12.52;4.15;;;12.10;99.90;;;;;;5062299;28;20390;-60
2023/10/05 04:57:50;;;;;;;7.72;3.97;;;12.20;99.90;;;;;;5054526;28;20561;-64
2023/10/05 05:03:17;;;;;;;11.00;4.30;;;12.20;99.90;;;;;;5056470;28;20128;-62
2023/10/05 05:05:57;;;;;;;9.70;4.75;;;12.20;99.90;;;;;;5058384;28;20606;-62
2023/10/05 05:08:24;;;;;;;14.13;4.68;;;12.20;99.90;;;;;;5053998;28;20064;-65
2023/10/05 05:10:51;;;;;;;10.23;4.13;;;12.20;99.90;;;;;;5056707;28;20149;-64
2023/10/05 05:13:20;;;;;;;11.38;4.20;;;12.20;99.90;;;;;;5056417;28;20032;-62
2023/10/05 05:15:47;;;;;;;9.50;4.28;;;12.20;99.90;;;;;;5057839;28;20123;-62
2023/10/05 05:18:14;;;;;;;16.35;5.35;;;12.20;99.90;;;;;;5056012;28;20056;-61
2023/10/05 05:20:45;;;;;;;7.55;4.07;;;12.20;99.90;;;;;;5056292;28;20412;-62
2023/10/05 05:23:13;;;;;;;7.88;3.20;;;12.20;99.90;;;;;;5056882;28;20449;-65
2023/10/05 05:25:40;;;;;;;12.75;4.25;;;12.30;99.90;;;;;;5055562;28;20090;-61
2023/10/05 05:28:08;;;;;;;7.22;3.80;;;12.30;99.90;;;;;;5050385;28;20056;-63
2023/10/05 05:30:40;;;;;;;8.73;3.33;;;12.30;99.90;;;;;;5057156;28;20048;-64
2023/10/05 05:33:10;;;;;;;8.48;2.90;;;12.30;99.90;;;;;;5054073;28;20088;-64
2023/10/05 05:35:39;;;;;;;6.00;3.00;;;12.40;99.90;;;;;;5057719;28;20032;-61
2023/10/05 05:38:09;;;;;;;8.70;3.58;;;12.40;99.90;;;;;;5053892;28;20067;-62
2023/10/05 05:40:38;;;;;;;6.90;3.10;;;12.40;99.90;;;;;;5057147;28;20534;-60
2023/10/05 05:43:11;;;;;;;8.88;3.10;;;12.40;99.90;;;;;;5053997;28;20036;-62
2023/10/05 05:45:42;;;;;;;6.93;3.13;;;12.40;99.90;;;;;;5057526;28;20057;-60
2023/10/05 05:48:13;;;;;;;6.65;3.00;;;12.40;99.90;;;;;;5059018;28;20098;-63
2023/10/05 05:50:42;;;;;;;9.20;4.03;;;12.40;99.90;;;;;;5057377;28;20362;-67
2023/10/05 05:53:12;;;;;;;7.95;3.65;;;12.40;99.90;;;;;;5050750;28;20049;-61
2023/10/05 05:55:44;;;;;;;6.95;3.30;;;12.40;99.90;;;;;;5055656;28;20033;-61
2023/10/05 05:58:15;;;;;;;3.63;2.50;;;12.50;99.90;;;;;;5056126;28;20044;-61
2023/10/05 06:00:47;;;;;;;3.40;2.35;;;12.50;99.90;;;;;;5054522;28;20051;-66
2023/10/05 06:03:14;;;;;;;6.35;2.58;;;12.50;99.90;;;;;;5054235;28;20289;-61
2023/10/05 06:05:41;;;;;;;5.50;2.45;;;12.50;99.90;;;;;;5053426;28;20111;-62
2023/10/05 06:08:09;;;;;;;9.90;2.65;;;12.50;99.90;;;;;;5055425;28;20470;-62
2023/10/05 06:10:36;;;;;;;10.88;4.10;;;12.50;99.90;;;;;;5052280;28;20171;-63
2023/10/05 06:13:11;;;;;;;6.82;3.13;;;12.50;99.90;;;;;;5052722;28;20533;-61
2023/10/05 06:15:39;;;;;;;8.32;2.70;;;12.50;99.90;;;;;;5054176;28;20045;-66
2023/10/05 06:18:07;;;;;;;6.05;2.60;;;12.50;99.90;;;;;;5059247;28;20072;-62
2023/10/05 06:20:35;;;;;;;6.88;3.47;;;12.50;99.90;;;;;;5057783;28;20063;-61
2023/10/05 06:23:02;;;;;;;7.70;2.30;;;12.50;99.90;;;;;;5055184;28;20057;-63
2023/10/05 06:25:30;;;;;;;9.73;3.15;;;12.50;99.90;;;;;;5055028;28;20467;-62
2023/10/05 06:27:59;;;;;;;4.68;2.30;;;12.50;99.90;;;;;;5048819;28;20129;-62
2023/10/05 06:30:26;;;;;;;8.75;3.03;;;12.60;99.90;;;;;;5051573;28;20116;-64
2023/10/05 06:32:54;;;;;;;4.20;2.05;;;12.60;99.90;;;;;;5047338;28;20052;-62
2023/10/05 06:35:21;;;;;;;5.97;2.00;;;12.60;99.90;;;;;;5052928;28;20387;-63
2023/10/05 06:37:49;;;;;;;6.50;2.33;;;12.60;99.90;;;;;;5050110;28;20048;-63
2023/10/05 06:40:21;;;;;;;3.30;2.33;;;12.70;99.90;;;;;;5051532;28;21085;-66
2023/10/05 06:42:49;;;;;;;6.63;2.03;;;12.70;99.90;;;;;;5049670;28;20044;-61
2023/10/05 06:45:19;;;;;;;5.82;1.90;;;12.70;99.90;;;;;;5056777;28;20037;-62
2023/10/05 06:47:48;;;;;;;3.63;2.03;;;12.70;99.90;;;;;;5049245;28;20444;-61
2023/10/05 06:50:15;;;;;;;3.42;1.45;;;12.70;99.90;;;;;;5055890;28;20052;-63
2023/10/05 06:52:44;;;;;;;7.70;2.70;;;12.80;99.90;;;;;;5012542;28;1121694;-62
2023/10/05 06:55:13;;;;;;;4.82;1.25;;;12.80;99.90;;;;;;5053130;28;20139;-63
2023/10/05 06:57:44;;;;;;;5.40;1.45;;;12.80;99.90;;;;;;5051821;28;20045;-63
2023/10/05 07:00:16;;;;;;;11.45;2.58;;;12.70;99.90;;;;;;5049999;28;20110;-68
2023/10/05 07:02:47;;;;;;;4.68;1.20;;;12.70;99.90;;;;;;5055588;28;20390;-61
2023/10/05 07:05:15;;;;;;;5.25;2.25;;;12.70;99.90;;;;;;5057722;28;20059;-62
2023/10/05 07:07:43;;;;;;;10.50;1.75;;;12.70;99.90;;;;;;5054556;28;20474;-61
2023/10/05 07:10:14;;;;;;;4.15;1.75;;;12.70;99.90;;;;;;5055905;28;20128;-64
2023/10/05 07:12:44;;;;;;;6.93;1.73;;;12.80;99.90;;;;;;5060525;28;20051;-61
2023/10/05 07:15:17;;;;;;;2.05;0.75;;;12.70;99.90;;;;;;5053290;28;20040;-61
2023/10/05 07:17:47;;;;;;;3.78;0.50;;;12.80;99.90;;;;;;5050798;28;20139;-63
2023/10/05 07:20:17;;;;;;;2.33;0.93;;;12.80;99.90;;;;;;5054108;28;20041;-62
2023/10/05 07:22:46;;;;;;;8.57;1.83;;;12.80;99.90;;;;;;5055326;28;20066;-61
2023/10/05 07:25:19;;;;;;;2.20;0.77;;;12.80;99.90;;;;;;5060971;28;20371;-62
2023/10/05 07:27:50;;;;;;;3.75;1.05;;;12.80;99.90;;;;;;5049937;28;20045;-64
2023/10/05 07:30:17;;;;;;;;;;;12.80;99.90;;;;;;5052089;28;20040;-61
2023/10/05 07:32:44;;;;;;;1.60;1.42;;;12.70;99.90;;;;;;5054767;28;19931;-61
2023/10/05 07:35:23;;;;;;;6.32;1.65;;;12.80;99.90;;;;;;5051592;28;20099;-61
2023/10/05 07:37:51;;;;;;;1.98;0.80;;;12.70;99.90;;;;;;5056489;28;20047;-60
2023/10/05 07:40:18;;;;;;;3.10;1.33;;;12.70;99.90;;;;;;5055788;28;20418;-62
2023/10/05 07:42:46;;;;;;;3.42;0.50;;;12.70;99.90;;;;;;5054595;28;20044;-62
2023/10/05 07:45:15;;;;;;;4.00;0.70;;;12.80;99.90;;;;;;5054338;28;20052;-61
2023/10/05 07:47:49;;;;;;;3.65;0.77;;;12.80;99.90;;;;;;5052635;28;20612;-62
2023/10/05 07:50:16;;;;;;;5.13;1.30;;;12.80;99.90;;;;;;5053582;28;20049;-60
2023/10/05 07:52:44;;;;;;;3.20;1.00;;;12.80;99.90;;;;;;5052514;28;20135;-61
2023/10/05 07:55:11;;;;;;;5.43;1.85;;;12.80;99.90;;;;;;5028792;28;20041;-63
2023/10/05 07:57:38;;;;;;;1.98;0.85;;;12.80;99.90;;;;;;5031367;28;20037;-63
2023/10/05 08:00:11;;;;;;;2.85;0.70;;;12.80;99.90;;;;;;5034496;28;20041;-64
2023/10/05 08:02:39;;;;;;;4.50;0.85;;;12.80;99.90;;;;;;5032815;28;20076;-63
2023/10/05 08:05:09;;;;;;;2.45;0.63;;;12.80;99.90;;;;;;5031424;28;20045;-62
2023/10/05 08:07:36;;;;;;;5.87;1.00;;;12.80;99.90;;;;;;5031914;28;20034;-62
2023/10/05 08:10:04;;;;;;;2.45;0.45;;;12.80;99.90;;;;;;5035942;28;20045;-63
2023/10/05 08:12:31;;;;;;;6.32;1.27;;;12.70;99.90;;;;;;5016814;28;20390;-61
2023/10/05 08:14:59;;;;;;;4.07;0.55;;;12.70;99.90;;;;;;5036725;28;20049;-62
2023/10/05 08:17:27;;;;;;;5.95;0.73;;;12.60;99.90;;;;;;5034871;28;20033;-67
2023/10/05 08:19:54;;;;;;;1.70;1.15;;;12.60;99.90;;;;;;5036562;28;20491;-61
2023/10/05 08:22:22;;;;;;;2.67;0.88;;;12.60;99.90;;;;;;5036854;28;20551;-62
2023/10/05 08:24:51;;;;;;;2.25;0.73;;;12.60;99.90;;;;;;5033378;28;20045;-61
2023/10/05 08:27:19;;;;;;;3.78;0.63;;;12.60;99.90;;;;;;5034030;28;20037;-64
2023/10/05 08:29:47;;;;;;;4.65;0.70;;;12.60;99.90;;;;;;5037013;28;20042;-64
2023/10/05 08:32:15;;;;;;;4.82;1.08;;;12.70;99.90;;;;;;5036998;28;20372;-61
2023/10/05 08:34:45;;;;;;;3.05;0.70;;;12.70;99.90;;;;;;5032032;28;20125;-61
2023/10/05 08:37:12;;;;;;;4.63;0.77;;;12.70;99.90;;;;;;5031433;28;20033;-62
2023/10/05 08:39:39;;;;;;;1.52;0.65;;;12.70;99.90;;;;;;5034956;28;20038;-62
2023/10/05 08:42:06;;;;;;;7.05;1.42;;;12.70;99.90;;;;;;5035258;28;20064;-62
2023/10/05 08:44:42;;;;;;;4.32;0.70;;;12.70;99.90;;;;;;5033410;28;20470;-62
2023/10/05 08:47:13;;;;;;;2.00;0.55;;;12.60;99.90;;;;;;5029147;28;20539;-65
2023/10/05 08:49:43;;;;;;;3.55;1.35;;;12.50;99.90;;;;;;5024629;28;20108;-62
2023/10/05 08:52:20;;;;;;;2.75;0.45;;;12.50;99.90;;;;;;5032979;28;20519;-63
2023/10/05 08:54:50;;;;;;;2.53;0.70;;;12.50;99.90;;;;;;5053373;28;20881;-62
2023/10/05 08:57:21;;;;;;;2.47;1.45;;;12.50;99.90;;;;;;5050454;28;21534;-63
2023/10/05 08:59:50;;;;;;;1.73;0.47;;;12.60;99.90;;;;;;5050354;28;20041;-63
2023/10/05 09:02:21;;;;;;;3.60;1.05;;;12.60;99.90;;;;;;5052117;28;20106;-61
2023/10/05 09:04:59;;;;;;;2.43;0.63;;;12.60;99.90;;;;;;5053620;28;20394;-62
2023/10/05 09:07:38;;;;;;;0.68;0.63;;;12.60;99.90;;;;;;5054273;28;20304;-66
2023/10/05 09:10:08;;;;;;;1.33;0.63;;;12.60;99.90;;;;;;5056795;28;20057;-64
2023/10/05 09:12:46;;;;;;;1.65;0.68;;;12.70;99.90;;;;;;5053590;28;20041;-63
2023/10/05 09:17:58;;;;;;;3.92;1.20;;;12.90;99.90;;;;;;5060365;28;20068;-66
2023/10/05 09:20:33;;;;;;;3.88;1.08;;;12.90;99.90;;;;;;5058010;28;20055;-68
2023/10/05 09:23:09;;;;;;;1.30;0.60;;;12.90;99.90;;;;;;5056226;28;20040;-61
2023/10/05 09:25:38;;;;;;;4.35;1.20;;;13.00;99.90;;;;;;5052609;28;20429;-61
2023/10/05 09:28:17;;;;;;;1.63;0.50;;;12.90;99.90;;;;;;5054968;28;20111;-64
2023/10/05 09:30:49;;;;;;;2.90;0.73;;;12.90;99.90;;;;;;5053605;28;20048;-67
2023/10/05 09:33:18;;;;;;;0.68;0.35;;;13.00;99.90;;;;;;5056101;28;20040;-61
2023/10/05 09:35:46;;;;;;;1.42;0.70;;;13.00;99.90;;;;;;5055625;28;20071;-63
2023/10/05 09:38:17;;;;;;;4.13;0.93;;;13.00;99.90;;;;;;5057988;28;20052;-61
2023/10/05 09:40:47;;;;;;;1.23;0.50;;;13.00;99.90;;;;;;5055387;28;20064;-61
2023/10/05 09:43:21;;;;;;;0.98;0.52;;;12.90;99.90;;;;;;5062278;28;20043;-61
2023/10/05 09:45:53;;;;;;;1.92;0.73;;;12.70;99.90;;;;;;5054007;28;20045;-61
2023/10/05 09:48:21;;;;;;;1.95;0.73;;;12.40;99.90;;;;;;5055683;28;20502;-64
2023/10/05 09:50:48;;;;;;;4.40;1.25;;;12.30;99.90;;;;;;5053258;28;20045;-62
2023/10/05 09:53:19;;;;;;;5.65;2.05;;;12.20;99.90;;;;;;5055599;28;20056;-65
2023/10/05 09:55:53;;;;;;;3.13;1.05;;;12.00;99.90;;;;;;5057939;28;20183;-62
2023/10/05 09:58:21;;;;;;;3.85;1.20;;;11.70;99.90;;;;;;5055672;28;20481;-64
2023/10/05 10:00:49;;;;;;;7.15;0.95;;;11.40;99.90;;;;;;5053422;28;20040;-62
2023/10/05 10:03:17;;;;;;;5.60;2.17;;;11.20;99.90;;;;;;5054209;28;20045;-62
2023/10/05 10:05:49;;;;;;;3.67;0.90;;;11.20;99.90;;;;;;5055475;28;20049;-62
2023/10/05 10:08:27;;;;;;;3.33;1.10;;;11.10;99.90;;;;;;5053332;28;20041;-66
2023/10/05 10:11:09;;;;;;;5.20;2.28;;;11.10;99.90;;;;;;5051335;28;20040;-62
2023/10/05 10:13:39;;;;;;;4.35;1.20;;;11.10;99.90;;;;;;5053372;28;20052;-61
2023/10/05 10:16:17;;;;;;;6.18;1.17;;;11.20;99.90;;;;;;5055999;28;20041;-63
2023/10/05 10:18:45;;;;;;;4.75;2.17;;;11.30;99.90;;;;;;5057318;28;20729;-63
2023/10/05 10:21:32;;;;;;;17.25;2.85;;;11.20;99.90;;;;;;5051630;28;20072;-62
2023/10/05 10:24:07;;;;;;;4.32;0.98;;;11.10;99.90;;;;;;5055097;28;20052;-62
2023/10/05 10:26:45;;;;;;;4.07;2.20;;;11.10;99.90;;;;;;5059238;28;20037;-64
2023/10/05 10:29:16;;;;;;;6.70;0.90;;;11.00;99.90;;;;;;5057373;28;20044;-63
2023/10/05 10:31:47;;;;;;;7.88;1.73;;;11.10;99.90;;;;;;5056046;28;20135;-62
2023/10/05 10:34:50;;;;;;;4.75;0.95;;;11.20;99.90;;;;;;5047631;28;20225;-62
2023/10/05 10:37:42;;;;;;;4.50;1.10;;;11.20;99.90;;;;;;5052060;28;20043;-66
2023/10/05 10:45:41;;;;;;;5.85;1.15;;;11.20;99.90;;;;;;5054560;28;20585;-64
2023/10/05 10:48:19;;;;;;;3.72;0.98;;;11.20;99.90;;;;;;5042296;28;20570;-68
2023/10/05 10:50:47;;;;;;;5.00;1.50;;;11.30;99.90;;;;;;5049165;28;20045;-65
2023/10/05 10:53:17;;;;;;;2.60;1.20;;;11.20;99.90;;;;;;5053971;28;20090;-63
2023/10/05 10:55:46;;;;;;;;;;;11.20;99.90;;;;;;5053522;28;20360;-65
2023/10/05 10:58:16;;;;;;;4.80;2.22;;;11.20;99.90;;;;;;5048766;28;19921;-65
2023/10/05 11:00:57;;;;;;;10.40;2.13;;;11.20;99.90;;;;;;5055992;28;20427;-62
2023/10/05 11:03:30;;;;;;;4.75;1.38;;;11.10;99.90;;;;;;5045516;28;20048;-65
2023/10/05 11:06:00;;;;;;;6.50;1.20;;;11.00;99.90;;;;;;5054466;28;20051;-64
2023/10/05 11:08:31;;;;;;;3.80;2.05;;;11.00;99.90;;;;;;5054283;28;20070;-65
2023/10/05 11:11:06;;;;;;;3.03;1.00;;;11.00;99.90;;;;;;5053136;28;20055;-65
2023/10/05 11:13:45;;;;;;;10.32;1.85;;;11.10;99.90;;;;;;5056639;28;20041;-63
2023/10/05 11:16:15;;;;;;;6.10;1.45;;;11.00;99.90;;;;;;5050684;28;20145;-62
2023/10/05 11:18:57;;;;;;;;;;;11.00;99.90;;;;;;5058542;28;20054;-65
2023/10/05 11:21:33;;;;;;;1.80;0.77;;;11.00;99.90;;;;;;5055465;28;20305;-65
2023/10/05 11:24:06;;;;;;;1.25;0.95;;;11.00;99.90;;;;;;5056839;28;20052;-66
2023/10/05 11:29:33;;;;;;;12.02;1.98;;;11.00;99.90;;;;;;5056159;28;20700;-64
2023/10/05 11:32:12;;;;;;;3.00;0.98;;;11.00;99.90;;;;;;5055087;28;20040;-65
2023/10/05 11:35:13;;;;;;;4.95;1.85;;;11.00;99.90;;;;;;5055716;28;20045;-64
2023/10/05 11:37:58;;;;;;;5.65;0.98;;;10.90;99.90;;;;;;5054725;28;20134;-62
2023/10/05 11:40:35;;;;;;;4.25;0.80;;;11.00;99.90;;;;;;5060700;28;20686;-65
2023/10/05 11:43:12;;;;;;;2.90;0.68;;;11.00;99.90;;;;;;5058073;28;20094;-64
2023/10/05 11:46:17;;;;;;;3.35;0.88;;;11.00;99.90;;;;;;5057894;28;20386;-62
2023/10/05 11:48:48;;;;;;;4.72;1.50;;;11.10;99.90;;;;;;5055619;28;20049;-62
2023/10/05 11:51:19;;;;;;;7.22;0.80;;;11.10;99.90;;;;;;5057514;28;20072;-61
2023/10/05 11:53:47;;;;;;;6.50;0.70;;;11.10;99.90;;;;;;5060421;28;20063;-62
2023/10/05 11:56:18;;;;;;;6.90;1.10;;;11.20;99.90;;;;;;5050398;28;20551;-61
2023/10/05 11:58:46;;;;;;;1.83;0.63;;;11.20;99.90;;;;;;5052248;28;20091;-61
2023/10/05 12:01:17;;;;;;;3.42;0.63;;;11.20;99.90;;;;;;5055691;28;20041;-62
2023/10/05 12:03:44;;;;;;;3.83;1.60;;;11.20;99.90;;;;;;5056683;28;20056;-61
2023/10/05 12:06:12;;;;;;;3.03;0.57;;;11.20;99.90;;;;;;5060108;28;20119;-62
2023/10/05 12:08:41;;;;;;;2.00;0.50;;;11.20;99.90;;;;;;5053503;28;20449;-60
2023/10/05 12:11:10;;;;;;;1.92;0.40;;;11.20;99.90;;;;;;5054871;28;20088;-62
2023/10/05 12:13:38;;;;;;;4.25;0.88;;;11.30;99.90;;;;;;5057392;28;20044;-62
2023/10/05 12:16:11;;;;;;;2.70;0.75;;;11.30;99.90;;;;;;5054622;28;20041;-60
2023/10/05 12:18:41;;;;;;;4.22;1.10;;;11.40;99.90;;;;;;5053279;28;20045;-60
2023/10/05 12:21:10;;;;;;;;;;;11.50;99.90;;;;;;5056237;28;20120;-60
2023/10/05 12:23:37;;;;;;;3.78;0.80;;;11.60;99.90;;;;;;5034633;28;19943;-59
2023/10/05 12:26:10;;;;;;;7.70;1.25;;;11.70;99.90;;;;;;5055810;28;20047;-63
2023/10/05 12:28:43;;;;;;;1.00;0.65;;;11.60;99.90;;;;;;5055513;28;20506;-61
2023/10/05 12:31:12;;;;;;;5.28;1.45;;;11.70;99.90;;;;;;5073625;28;20107;-61
2023/10/05 12:33:42;;;;;;;4.95;0.85;;;11.70;99.90;;;;;;5055137;28;20610;-60
2023/10/05 12:36:09;;;;;;;2.90;0.98;;;11.60;99.90;;;;;;5052436;28;20040;-59
2023/10/05 12:38:36;;;;;;;8.50;1.50;;;11.60;99.90;;;;;;5056053;28;20924;-61
2023/10/05 12:41:13;;;;;;;3.60;0.73;;;11.50;99.90;;;;;;5060198;28;20635;-59
2023/10/05 12:43:42;;;;;;;6.30;1.02;;;11.50;99.90;;;;;;5059700;28;20144;-61
2023/10/05 12:46:13;;;;;;;4.30;0.77;;;11.50;99.90;;;;;;5061522;28;20048;-60
2023/10/05 12:48:40;;;;;;;3.45;1.27;;;11.40;99.90;;;;;;5051662;28;20450;-59
2023/10/05 12:51:11;;;;;;;3.22;1.02;;;11.40;99.90;;;;;;5055220;28;20040;-61
2023/10/05 12:53:38;;;;;;;2.70;0.60;;;11.30;99.90;;;;;;5058957;28;20414;-60
2023/10/05 12:56:06;;;;;;;1.75;0.70;;;11.30;99.90;;;;;;5057050;28;20475;-61
2023/10/05 12:58:33;;;;;;;4.13;0.80;;;11.20;99.90;;;;;;5061360;28;20110;-60
2023/10/05 13:01:07;;;;;;;2.88;0.90;;;11.20;99.90;;;;;;5056135;28;20086;-62
2023/10/05 13:03:35;;;;;;;1.77;0.80;;;11.20;99.90;;;;;;5057002;28;20095;-66
2023/10/05 13:06:06;;;;;;;6.22;1.00;;;11.20;99.90;;;;;;5056451;28;20127;-62
2023/10/05 13:08:33;;;;;;;9.13;0.98;;;11.20;99.90;;;;;;5057287;28;20059;-60
2023/10/05 13:10:59;;;;;;;3.38;0.80;;;11.20;99.90;;;;;;5060413;28;20048;-65
2023/10/05 13:13:28;;;;;;;8.40;1.35;;;11.10;99.90;;;;;;5052878;28;20041;-64
2023/10/05 13:15:55;;;;;;;3.80;1.00;;;11.10;99.90;;;;;;5054593;28;20056;-63
2023/10/05 13:18:25;;;;;;;3.20;1.27;;;11.10;99.90;;;;;;5057465;28;20051;-61
2023/10/05 13:20:53;;;;;;;4.20;1.65;;;11.10;99.90;;;;;;5052941;28;20044;-63
2023/10/05 13:23:22;;;;;;;5.72;1.20;;;11.10;99.90;;;;;;5059029;28;20044;-64
2023/10/05 13:25:51;;;;;;;2.30;1.40;;;11.10;99.90;;;;;;5061401;28;20040;-61
2023/10/05 13:28:23;;;;;;;3.22;1.10;;;11.10;99.90;;;;;;5060768;28;20037;-59
2023/10/05 13:30:50;;;;;;;2.67;0.77;;;11.00;99.90;;;;;;5055322;28;20518;-61
2023/10/05 13:33:22;;;;;;;4.22;0.60;;;11.00;99.90;;;;;;5056646;28;20041;-62
2023/10/05 13:35:51;;;;;;;10.68;2.13;;;11.00;99.90;;;;;;5057471;28;20044;-59
2023/10/05 13:38:24;;;;;;;4.40;1.13;;;11.00;99.90;;;;;;5052839;28;20048;-63